createdAt,value
2019-03-26T00:00:55.955Z,25.799999
2019-03-26T00:06:18.666Z,25.9
2019-03-26T00:11:41.320Z,28.299999
2019-03-26T00:17:04.038Z,23.799999
2019-03-26T00:22:26.826Z,24.299999
2019-03-26T00:27:49.577Z,24.299999
2019-03-26T00:33:12.244Z,21.9
2019-03-26T00:38:34.920Z,24.6
2019-03-26T00:43:57.625Z,29.9
2019-03-26T00:49:20.348Z,25.4
2019-03-26T00:54:42.979Z,20.9
2019-03-26T01:00:05.670Z,23.700001
2019-03-26T01:05:28.399Z,21.6
2019-03-26T01:10:51.364Z,24
2019-03-26T01:16:14.355Z,21.200001
2019-03-26T01:21:37.287Z,17.6
2019-03-26T01:26:59.933Z,23.9
2019-03-26T01:32:22.649Z,27.9
2019-03-26T01:37:45.377Z,20.6
2019-03-26T01:43:08.103Z,20.9
2019-03-26T01:48:32.639Z,18.6
2019-03-26T01:53:55.347Z,16.5
2019-03-26T01:59:18.295Z,20.700001
2019-03-26T02:04:40.983Z,21.299999
2019-03-26T02:10:03.699Z,21.6
2019-03-26T02:15:26.591Z,22.799999
2019-03-26T02:20:50.005Z,16.1
2019-03-26T02:26:12.639Z,11.8
2019-03-26T02:31:35.287Z,15.2
2019-03-26T02:36:57.992Z,14.7
2019-03-26T02:42:20.743Z,15.9
2019-03-26T02:47:43.426Z,18.1
2019-03-26T02:53:08.609Z,14.2
2019-03-26T02:58:28.766Z,18.4
2019-03-26T03:03:51.410Z,13.9
2019-03-26T03:09:14.080Z,15.5
2019-03-26T03:14:36.780Z,16.5
2019-03-26T03:19:59.466Z,20.5
2019-03-26T03:25:22.149Z,12.3
2019-03-26T03:30:44.858Z,14
2019-03-26T03:36:07.528Z,17.799999
2019-03-26T03:41:30.410Z,18.200001
2019-03-26T03:46:53.052Z,14.4
2019-03-26T03:52:15.763Z,15.2
2019-03-26T03:57:38.452Z,14.2
2019-03-26T04:03:01.771Z,14.7
2019-03-26T04:08:24.431Z,18.5
2019-03-26T04:13:47.069Z,18.4
2019-03-26T04:19:09.718Z,21.799999
2019-03-26T04:24:32.408Z,13
2019-03-26T04:29:55.120Z,14
2019-03-26T04:35:17.815Z,16.9
2019-03-26T04:40:40.494Z,12.5
2019-03-26T04:46:04.344Z,17.4
2019-03-26T04:51:27.015Z,14.5
2019-03-26T04:56:50.711Z,16.799999
2019-03-26T05:02:13.364Z,13.6
2019-03-26T05:07:36.011Z,20.1
2019-03-26T05:12:58.721Z,17.1
2019-03-26T05:18:21.510Z,10.2
2019-03-26T05:23:46.178Z,12.1
2019-03-26T05:29:08.959Z,19.5
2019-03-26T05:34:31.703Z,17
2019-03-26T05:39:54.611Z,12.3
2019-03-26T05:45:17.274Z,16.799999
2019-03-26T05:50:40.055Z,14.8
2019-03-26T05:56:02.701Z,17.1
2019-03-26T06:01:25.414Z,17.1
2019-03-26T06:06:48.087Z,14
2019-03-26T06:12:10.854Z,16.299999
2019-03-26T06:17:33.625Z,15.2
2019-03-26T06:22:56.301Z,22.4
2019-03-26T06:28:19.013Z,11.7
2019-03-26T06:33:41.760Z,15.8
2019-03-26T06:39:04.462Z,16.9
2019-03-26T06:44:27.164Z,13.6
2019-03-26T06:49:49.862Z,14.5
2019-03-26T06:55:12.479Z,19.5
2019-03-26T07:00:35.162Z,18.5
2019-03-26T07:05:58.094Z,16.4
2019-03-26T07:11:20.905Z,16.299999
2019-03-26T07:16:43.589Z,16.200001
2019-03-26T07:22:06.223Z,12.7
2019-03-26T07:27:28.853Z,15
2019-03-26T07:32:51.568Z,13.2
2019-03-26T07:38:15.209Z,13.4
2019-03-26T07:43:38.748Z,12.2
2019-03-26T07:49:01.415Z,15.4
2019-03-26T07:54:24.115Z,11.5
2019-03-26T07:59:46.825Z,11.8
2019-03-26T08:05:10.196Z,9.9
2019-03-26T08:10:32.894Z,13.5
2019-03-26T08:15:55.615Z,11.9
2019-03-26T08:21:18.341Z,10.8
2019-03-26T08:26:40.978Z,11.9
2019-03-26T08:32:03.678Z,14.6
2019-03-26T08:37:26.448Z,12.3
2019-03-26T08:42:49.142Z,11.5
2019-03-26T08:48:12.808Z,14.1
2019-03-26T08:53:35.580Z,11.6
2019-03-26T08:58:58.263Z,11.8
2019-03-26T09:04:20.931Z,14
2019-03-26T09:09:43.696Z,14.4
2019-03-26T09:15:06.608Z,16.5
2019-03-26T09:20:29.628Z,14
2019-03-26T09:25:52.244Z,11.7
2019-03-26T09:31:15.007Z,10.2
2019-03-26T09:36:37.716Z,12.8
2019-03-26T09:42:00.352Z,10.4
2019-03-26T09:47:23.129Z,11.7
2019-03-26T09:52:46.690Z,12.4
2019-03-26T09:58:09.410Z,12.1
2019-03-26T10:03:32.118Z,13.1
2019-03-26T10:08:54.947Z,14.2
2019-03-26T10:14:17.610Z,10.2
2019-03-26T10:19:40.337Z,10.1
2019-03-26T10:25:03.131Z,13.9
2019-03-26T10:30:25.783Z,15.3
2019-03-26T10:35:48.468Z,14.6
2019-03-26T10:41:11.160Z,12.5
2019-03-26T10:46:33.784Z,14.3
2019-03-26T10:51:56.486Z,13.5
2019-03-26T10:57:21.839Z,12.2
2019-03-26T11:02:42.782Z,11.2
2019-03-26T11:08:05.457Z,9.6
2019-03-26T11:13:28.472Z,11.1
2019-03-26T11:18:51.306Z,15.7
2019-03-26T11:24:14.071Z,16.200001
2019-03-26T11:29:36.978Z,11.4
2019-03-26T11:34:59.811Z,11.1
2019-03-26T11:40:22.503Z,10.9
2019-03-26T11:45:45.933Z,13.9
2019-03-26T11:51:08.775Z,15
2019-03-26T11:56:31.711Z,15
2019-03-26T12:01:54.385Z,10.9
2019-03-26T12:07:17.031Z,13.2
2019-03-26T12:12:40.024Z,15.6
2019-03-26T12:18:03.306Z,14.1
2019-03-26T12:23:26.836Z,12.1
2019-03-26T12:28:49.563Z,11.9
2019-03-26T12:34:12.325Z,11.3
2019-03-26T12:39:35.094Z,15.5
2019-03-26T12:44:57.788Z,14.1
2019-03-26T12:50:20.444Z,13.3
2019-03-26T12:55:43.133Z,14.2
2019-03-26T13:01:05.815Z,15.1
2019-03-26T13:06:28.531Z,15.2
2019-03-26T13:11:51.821Z,10.4
2019-03-26T13:17:15.262Z,11.3
2019-03-26T13:22:38.048Z,17.700001
2019-03-26T13:28:00.727Z,13
2019-03-26T13:33:23.388Z,13.1
2019-03-26T13:38:46.345Z,14.3
2019-03-26T13:44:09.158Z,17.1
2019-03-26T13:49:32.435Z,15
2019-03-26T13:54:55.085Z,17.6
2019-03-26T14:00:17.763Z,11.3
2019-03-26T14:05:40.447Z,16.299999
2019-03-26T14:11:03.117Z,14
2019-03-26T14:16:25.787Z,17
2019-03-26T14:21:48.586Z,13.9
2019-03-26T14:27:13.374Z,16
2019-03-26T14:32:36.048Z,13.1
2019-03-26T14:37:58.972Z,15.3
2019-03-26T14:43:21.621Z,13.2
2019-03-26T14:48:44.246Z,17.6
2019-03-26T14:54:06.882Z,15.3
2019-03-26T14:59:29.572Z,14.5
2019-03-26T15:04:52.306Z,14.1
2019-03-26T15:10:14.965Z,12.7
2019-03-26T15:15:37.625Z,9.9
2019-03-26T15:21:00.489Z,13.7
2019-03-26T15:26:23.273Z,15.1
2019-03-26T15:31:46.180Z,12.1
2019-03-26T15:37:08.921Z,14.8
2019-03-26T15:42:31.490Z,17.200001
2019-03-26T15:47:54.813Z,17.5
2019-03-26T15:53:17.460Z,14.8
2019-03-26T15:58:40.105Z,13.4
2019-03-26T16:04:02.766Z,14.7
2019-03-26T16:09:25.429Z,11.2
2019-03-26T16:14:48.096Z,12.4
2019-03-26T16:20:10.761Z,12
2019-03-26T16:25:33.728Z,14.4
2019-03-26T16:30:56.414Z,13.7
2019-03-26T16:36:19.175Z,14.3
2019-03-26T16:41:48.686Z,13.1
2019-03-26T16:47:07.434Z,12.9
2019-03-26T16:52:30.118Z,13.6
2019-03-26T16:57:52.772Z,18.799999
2019-03-26T17:03:15.449Z,19.200001
2019-03-26T17:08:39.124Z,17.200001
2019-03-26T17:14:03.733Z,17.1
2019-03-26T17:19:26.423Z,19.799999
2019-03-26T17:24:49.043Z,20.1
2019-03-26T17:30:11.749Z,14.4
2019-03-26T17:35:34.743Z,14.5
2019-03-26T17:40:58.372Z,12.9
2019-03-26T17:46:21.166Z,13
2019-03-26T17:51:43.961Z,9.8
2019-03-26T17:57:06.697Z,14.1
2019-03-26T18:02:29.473Z,11.8
2019-03-26T18:07:52.175Z,8.4
2019-03-26T18:13:14.965Z,12.1
2019-03-26T18:18:37.925Z,10.9
2019-03-26T18:24:00.761Z,12.1
2019-03-26T18:29:23.667Z,14.8
2019-03-26T18:34:46.349Z,14
2019-03-26T18:40:09.092Z,12.2
2019-03-26T18:45:31.845Z,13
2019-03-26T18:50:54.633Z,18
2019-03-26T18:56:17.931Z,17.6
2019-03-26T19:01:40.606Z,15.4
2019-03-26T19:07:03.337Z,15.4
2019-03-26T19:12:27.324Z,14.8
2019-03-26T19:17:50.140Z,15.2
2019-03-26T19:23:12.837Z,18
2019-03-26T19:28:35.549Z,15.2
2019-03-26T19:33:59.901Z,18.9
2019-03-26T19:39:23.157Z,17.4
2019-03-26T19:44:46.058Z,18.4
2019-03-26T19:50:08.078Z,21.5
2019-03-26T19:55:33.807Z,24
2019-03-26T20:00:56.662Z,22.299999
2019-03-26T20:06:20.221Z,21.700001
2019-03-26T20:11:42.903Z,24.1
2019-03-26T20:17:05.709Z,26.9
2019-03-26T20:22:28.757Z,18.799999
2019-03-26T20:27:51.643Z,18.799999
2019-03-26T20:33:14.382Z,22.299999
2019-03-26T20:38:37.070Z,26.6
2019-03-26T20:44:00.752Z,26.4
2019-03-26T20:49:23.500Z,24.299999
2019-03-26T20:54:46.351Z,26.700001
2019-03-26T21:00:09.054Z,26.200001
2019-03-26T21:05:32.077Z,24.700001
2019-03-26T21:10:54.903Z,22.200001
2019-03-26T21:16:17.550Z,22.1
2019-03-26T21:21:39.427Z,19.799999
2019-03-26T21:27:02.143Z,16.4
2019-03-26T21:32:25.073Z,16.6
2019-03-26T21:37:47.998Z,15.8
2019-03-26T21:43:10.725Z,16.5
2019-03-26T21:48:33.404Z,16.200001
2019-03-26T21:53:56.076Z,16
2019-03-26T21:59:18.877Z,16.4
2019-03-26T22:04:41.499Z,17.6
2019-03-26T22:10:04.140Z,17.299999
2019-03-26T22:15:26.839Z,15.8
2019-03-26T22:20:50.286Z,11.1
2019-03-26T22:26:13.033Z,16.700001
2019-03-26T22:31:36.645Z,15.8
2019-03-26T22:36:59.434Z,19.5
2019-03-26T22:42:22.113Z,19.9
2019-03-26T22:47:44.780Z,13.6
2019-03-26T22:53:08.360Z,15.4
2019-03-26T22:58:31.645Z,19.1
2019-03-26T23:03:54.340Z,17.6
2019-03-26T23:09:16.997Z,14.9
2019-03-26T23:14:45.232Z,17.700001
2019-03-26T23:20:03.336Z,14
2019-03-26T23:25:26.843Z,13.3
2019-03-26T23:30:49.546Z,18.799999
2019-03-26T23:36:12.205Z,16.6
2019-03-26T23:41:35.874Z,17.299999
2019-03-26T23:46:59.621Z,16.700001
2019-03-26T23:52:22.292Z,19
2019-03-26T23:57:45.643Z,19.1
